sensor_id;sensor_type;location;lat;lon;timestamp;P1;P2;P0
66155;PMS5003;52957;50.848;20.656;2024-02-26T00:10:04;78;63;39
66155;PMS5003;52957;50.848;20.656;2024-02-26T00:20:02;78;63;39
66155;PMS5003;52957;50.848;20.656;2024-02-26T00:30:13;78;63;39
66155;PMS5003;52957;50.848;20.656;2024-02-26T00:40:13;84;73;43
66155;PMS5003;52957;50.848;20.656;2024-02-26T00:50:09;84;73;43
66155;PMS5003;52957;50.848;20.656;2024-02-26T01:00:12;84;73;43
66155;PMS5003;52957;50.848;20.656;2024-02-26T01:10:03;61;50;30
66155;PMS5003;52957;50.848;20.656;2024-02-26T01:20:14;61;50;30
66155;PMS5003;52957;50.848;20.656;2024-02-26T01:30:18;61;50;30
66155;PMS5003;52957;50.848;20.656;2024-02-26T01:40:05;73;58;36
66155;PMS5003;52957;50.848;20.656;2024-02-26T01:50:10;73;58;36
66155;PMS5003;52957;50.848;20.656;2024-02-26T02:00:13;73;58;36
66155;PMS5003;52957;50.848;20.656;2024-02-26T02:10:10;75;53;32
66155;PMS5003;52957;50.848;20.656;2024-02-26T02:20:04;75;53;32
66155;PMS5003;52957;50.848;20.656;2024-02-26T02:30:13;75;53;32
66155;PMS5003;52957;50.848;20.656;2024-02-26T02:40:03;63;47;28
66155;PMS5003;52957;50.848;20.656;2024-02-26T02:50:06;63;47;28
66155;PMS5003;52957;50.848;20.656;2024-02-26T03:00:15;63;47;28
66155;PMS5003;52957;50.848;20.656;2024-02-26T03:10:04;63;49;31
66155;PMS5003;52957;50.848;20.656;2024-02-26T03:20:10;63;49;31
66155;PMS5003;52957;50.848;20.656;2024-02-26T03:30:05;63;49;31
66155;PMS5003;52957;50.848;20.656;2024-02-26T03:40:19;73;57;36
66155;PMS5003;52957;50.848;20.656;2024-02-26T03:50:13;73;57;36
66155;PMS5003;52957;50.848;20.656;2024-02-26T04:00:16;73;57;36
66155;PMS5003;52957;50.848;20.656;2024-02-26T04:10:08;63;51;31
66155;PMS5003;52957;50.848;20.656;2024-02-26T04:20:17;63;51;31
66155;PMS5003;52957;50.848;20.656;2024-02-26T04:30:13;63;51;31
66155;PMS5003;52957;50.848;20.656;2024-02-26T04:40:06;72;58;34
66155;PMS5003;52957;50.848;20.656;2024-02-26T04:50:07;72;58;34
66155;PMS5003;52957;50.848;20.656;2024-02-26T05:00:09;72;58;34
66155;PMS5003;52957;50.848;20.656;2024-02-26T05:10:10;69;54;34
66155;PMS5003;52957;50.848;20.656;2024-02-26T05:20:13;69;54;34
66155;PMS5003;52957;50.848;20.656;2024-02-26T05:30:06;69;54;34
66155;PMS5003;52957;50.848;20.656;2024-02-26T05:40:12;75;52;29
66155;PMS5003;52957;50.848;20.656;2024-02-26T05:50:11;75;52;29
66155;PMS5003;52957;50.848;20.656;2024-02-26T06:00:14;75;52;29
66155;PMS5003;52957;50.848;20.656;2024-02-26T06:10:05;61;47;28
66155;PMS5003;52957;50.848;20.656;2024-02-26T06:20:13;61;47;28
66155;PMS5003;52957;50.848;20.656;2024-02-26T06:30:13;61;47;28
66155;PMS5003;52957;50.848;20.656;2024-02-26T06:40:11;46;38;19
66155;PMS5003;52957;50.848;20.656;2024-02-26T06:50:11;46;38;19
66155;PMS5003;52957;50.848;20.656;2024-02-26T07:00:08;46;38;19
66155;PMS5003;52957;50.848;20.656;2024-02-26T07:10:07;42;35;21
66155;PMS5003;52957;50.848;20.656;2024-02-26T07:20:02;42;35;21
66155;PMS5003;52957;50.848;20.656;2024-02-26T07:30:02;42;35;21
66155;PMS5003;52957;50.848;20.656;2024-02-26T07:40:10;34;31;18
66155;PMS5003;52957;50.848;20.656;2024-02-26T07:50:12;34;31;18
66155;PMS5003;52957;50.848;20.656;2024-02-26T08:00:08;34;31;18
66155;PMS5003;52957;50.848;20.656;2024-02-26T08:10:13;27;26;14
66155;PMS5003;52957;50.848;20.656;2024-02-26T08:20:02;27;26;14
66155;PMS5003;52957;50.848;20.656;2024-02-26T08:30:17;27;26;14
66155;PMS5003;52957;50.848;20.656;2024-02-26T08:40:07;19;18;11
66155;PMS5003;52957;50.848;20.656;2024-02-26T08:50:07;19;18;11
66155;PMS5003;52957;50.848;20.656;2024-02-26T09:00:16;19;18;11
66155;PMS5003;52957;50.848;20.656;2024-02-26T09:10:16;15;14;9
66155;PMS5003;52957;50.848;20.656;2024-02-26T09:20:02;15;14;9
66155;PMS5003;52957;50.848;20.656;2024-02-26T09:30:02;15;14;9
66155;PMS5003;52957;50.848;20.656;2024-02-26T09:40:14;50;38;20
66155;PMS5003;52957;50.848;20.656;2024-02-26T09:50:26;50;38;20
66155;PMS5003;52957;50.848;20.656;2024-02-26T10:00:22;50;38;20
66155;PMS5003;52957;50.848;20.656;2024-02-26T10:10:10;20;19;12
66155;PMS5003;52957;50.848;20.656;2024-02-26T10:20:18;20;19;12
66155;PMS5003;52957;50.848;20.656;2024-02-26T10:30:18;20;19;12
66155;PMS5003;52957;50.848;20.656;2024-02-26T10:40:10;17;16;10
66155;PMS5003;52957;50.848;20.656;2024-02-26T10:50:09;17;16;10
66155;PMS5003;52957;50.848;20.656;2024-02-26T11:00:16;17;16;10
66155;PMS5003;52957;50.848;20.656;2024-02-26T11:10:07;10;8;5
66155;PMS5003;52957;50.848;20.656;2024-02-26T11:20:15;10;8;5
66155;PMS5003;52957;50.848;20.656;2024-02-26T11:30:23;10;8;5
66155;PMS5003;52957;50.848;20.656;2024-02-26T11:50:55;13;11;6
66155;PMS5003;52957;50.848;20.656;2024-02-26T12:00:32;13;11;6
66155;PMS5003;52957;50.848;20.656;2024-02-26T12:10:53;19;18;10
66155;PMS5003;52957;50.848;20.656;2024-02-26T12:20:09;19;18;10
66155;PMS5003;52957;50.848;20.656;2024-02-26T12:30:11;19;18;10
66155;PMS5003;52957;50.848;20.656;2024-02-26T12:40:16;30;28;16
66155;PMS5003;52957;50.848;20.656;2024-02-26T12:50:12;30;28;16
66155;PMS5003;52957;50.848;20.656;2024-02-26T13:00:25;30;28;16
66155;PMS5003;52957;50.848;20.656;2024-02-26T13:10:18;53;43;24
66155;PMS5003;52957;50.848;20.656;2024-02-26T13:20:26;53;43;24
66155;PMS5003;52957;50.848;20.656;2024-02-26T13:30:16;53;43;24
66155;PMS5003;52957;50.848;20.656;2024-02-26T13:40:12;41;33;20
66155;PMS5003;52957;50.848;20.656;2024-02-26T13:50:06;41;33;20
66155;PMS5003;52957;50.848;20.656;2024-02-26T14:00:07;41;33;20
66155;PMS5003;52957;50.848;20.656;2024-02-26T14:10:03;40;33;19
66155;PMS5003;52957;50.848;20.656;2024-02-26T14:20:09;40;33;19
66155;PMS5003;52957;50.848;20.656;2024-02-26T14:30:26;40;33;19
66155;PMS5003;52957;50.848;20.656;2024-02-26T14:40:16;46;38;21
66155;PMS5003;52957;50.848;20.656;2024-02-26T14:50:10;46;38;21
66155;PMS5003;52957;50.848;20.656;2024-02-26T15:00:08;46;38;21
66155;PMS5003;52957;50.848;20.656;2024-02-26T15:10:54;37;32;21
66155;PMS5003;52957;50.848;20.656;2024-02-26T15:20:15;37;32;21
66155;PMS5003;52957;50.848;20.656;2024-02-26T15:30:14;37;32;21
66155;PMS5003;52957;50.848;20.656;2024-02-26T15:40:07;49;41;24
66155;PMS5003;52957;50.848;20.656;2024-02-26T15:50:06;49;41;24
66155;PMS5003;52957;50.848;20.656;2024-02-26T16:00:25;49;41;24
66155;PMS5003;52957;50.848;20.656;2024-02-26T16:10:11;51;41;24
66155;PMS5003;52957;50.848;20.656;2024-02-26T16:20:19;51;41;24
66155;PMS5003;52957;50.848;20.656;2024-02-26T16:30:09;51;41;24
66155;PMS5003;52957;50.848;20.656;2024-02-26T16:50:02;67;53;33
66155;PMS5003;52957;50.848;20.656;2024-02-26T17:00:21;67;53;33
66155;PMS5003;52957;50.848;20.656;2024-02-26T17:20:08;90;76;42
66155;PMS5003;52957;50.848;20.656;2024-02-26T17:30:15;90;76;42
66155;PMS5003;52957;50.848;20.656;2024-02-26T17:40:02;90;76;42
66155;PMS5003;52957;50.848;20.656;2024-02-26T17:50:02;68;56;32
66155;PMS5003;52957;50.848;20.656;2024-02-26T18:00:08;68;56;32
66155;PMS5003;52957;50.848;20.656;2024-02-26T18:10:02;68;56;32
66155;PMS5003;52957;50.848;20.656;2024-02-26T18:20:10;69;58;34
66155;PMS5003;52957;50.848;20.656;2024-02-26T18:30:09;69;58;34
66155;PMS5003;52957;50.848;20.656;2024-02-26T18:50:06;70;54;32
66155;PMS5003;52957;50.848;20.656;2024-02-26T19:00:02;70;54;32
66155;PMS5003;52957;50.848;20.656;2024-02-26T19:20:02;69;53;33
66155;PMS5003;52957;50.848;20.656;2024-02-26T19:30:12;69;53;33
66155;PMS5003;52957;50.848;20.656;2024-02-26T19:40:02;69;53;33
66155;PMS5003;52957;50.848;20.656;2024-02-26T19:50:07;57;47;28
66155;PMS5003;52957;50.848;20.656;2024-02-26T20:00:04;57;47;28
66155;PMS5003;52957;50.848;20.656;2024-02-26T20:10:12;57;47;28
66155;PMS5003;52957;50.848;20.656;2024-02-26T20:20:13;78;68;40
66155;PMS5003;52957;50.848;20.656;2024-02-26T20:30:03;78;68;40
66155;PMS5003;52957;50.848;20.656;2024-02-26T20:40:06;78;68;40
66155;PMS5003;52957;50.848;20.656;2024-02-26T20:50:11;68;52;33
66155;PMS5003;52957;50.848;20.656;2024-02-26T21:00:06;68;52;33
66155;PMS5003;52957;50.848;20.656;2024-02-26T21:10:13;68;52;33
66155;PMS5003;52957;50.848;20.656;2024-02-26T21:20:19;55;44;28
66155;PMS5003;52957;50.848;20.656;2024-02-26T21:30:13;55;44;28
66155;PMS5003;52957;50.848;20.656;2024-02-26T21:40:08;55;44;28
66155;PMS5003;52957;50.848;20.656;2024-02-26T21:50:02;66;51;30
66155;PMS5003;52957;50.848;20.656;2024-02-26T22:00:02;66;51;30
66155;PMS5003;52957;50.848;20.656;2024-02-26T22:10:04;66;51;30
66155;PMS5003;52957;50.848;20.656;2024-02-26T22:20:11;48;38;24
66155;PMS5003;52957;50.848;20.656;2024-02-26T22:30:15;48;38;24
66155;PMS5003;52957;50.848;20.656;2024-02-26T22:40:09;48;38;24
66155;PMS5003;52957;50.848;20.656;2024-02-26T22:50:07;45;35;22
66155;PMS5003;52957;50.848;20.656;2024-02-26T23:00:25;45;35;22
66155;PMS5003;52957;50.848;20.656;2024-02-26T23:10:14;48;38;22
66155;PMS5003;52957;50.848;20.656;2024-02-26T23:20:15;48;38;22
66155;PMS5003;52957;50.848;20.656;2024-02-26T23:30:10;48;38;22
66155;PMS5003;52957;50.848;20.656;2024-02-26T23:40:11;46;39;24
66155;PMS5003;52957;50.848;20.656;2024-02-26T23:50:12;46;39;24
